Time;durP1;ratioP1;P1;durP2;ratioP2;P2;SDS_P1;SDS_P2;PMS_P1;PMS_P2;Temp;Humidity;BMP_temperature;BMP_pressure;BME280_temperature;BME280_humidity;BME280_pressure;Samples;Min_cycle;Max_cycle;Signal;HPM_P1;HPM_P2
2024/01/14 00:00:21;;;;;;;243.8;96.6;;;;;;;;;;;;;
2024/01/14 00:02:46;;;;;;;178.4;71.3;;;;;;;;;;;;;
2024/01/14 00:05:15;;;;;;;195;77.1;;;;;;;;;;;;;
2024/01/14 00:07:40;;;;;;;318;124.6;;;;;;;;;;;;;
2024/01/14 00:10:09;;;;;;;64.2;31.2;;;;;;;;;;;;;
2024/01/14 00:12:40;;;;;;;127.5;55.8;;;;;;;;;;;;;
2024/01/14 00:15:10;;;;;;;133.4;59.1;;;;;;;;;;;;;
2024/01/14 00:17:34;;;;;;;99.3;45.2;;;;;;;;;;;;;
2024/01/14 00:20:00;;;;;;;119;54;;;;;;;;;;;;;
2024/01/14 00:22:26;;;;;;;122;55.1;;;;;;;;;;;;;
2024/01/14 00:24:55;;;;;;;86.8;41.6;;;;;;;;;;;;;
2024/01/14 00:27:20;;;;;;;87.4;39.9;;;;;;;;;;;;;
2024/01/14 00:29:47;;;;;;;76.1;36.5;;;;;;;;;;;;;
2024/01/14 00:32:11;;;;;;;112.3;50.4;;;;;;;;;;;;;
2024/01/14 00:34:38;;;;;;;79.3;37.2;;;;;;;;;;;;;
2024/01/14 00:37:03;;;;;;;69.5;33.9;;;;;;;;;;;;;
2024/01/14 00:39:28;;;;;;;74.1;35.6;;;;;;;;;;;;;
2024/01/14 00:41:54;;;;;;;67.6;32.2;;;;;;;;;;;;;
2024/01/14 00:44:18;;;;;;;59.4;28.6;;;;;;;;;;;;;
2024/01/14 00:46:44;;;;;;;59.5;28.7;;;;;;;;;;;;;
2024/01/14 00:49:09;;;;;;;48;26;;;;;;;;;;;;;
2024/01/14 00:51:40;;;;;;;58.3;28.4;;;;;;;;;;;;;
2024/01/14 00:54:07;;;;;;;46.3;23.6;;;;;;;;;;;;;
2024/01/14 00:56:32;;;;;;;65.1;29.9;;;;;;;;;;;;;
2024/01/14 00:58:59;;;;;;;38.6;21;;;;;;;;;;;;;
2024/01/14 01:01:24;;;;;;;39.2;23.4;;;;;;;;;;;;;
2024/01/14 01:03:50;;;;;;;48.3;26;;;;;;;;;;;;;
2024/01/14 01:06:15;;;;;;;46.3;25.7;;;;;;;;;;;;;
2024/01/14 01:08:41;;;;;;;46.6;26.2;;;;;;;;;;;;;
2024/01/14 01:11:07;;;;;;;39.5;22.6;;;;;;;;;;;;;
2024/01/14 01:13:34;;;;;;;26.2;17.2;;;;;;;;;;;;;
2024/01/14 01:15:58;;;;;;;25.6;16.3;;;;;;;;;;;;;
2024/01/14 01:18:25;;;;;;;25.6;15.6;;;;;;;;;;;;;
2024/01/14 01:20:51;;;;;;;24.7;15.7;;;;;;;;;;;;;
2024/01/14 01:23:19;;;;;;;25.9;15.6;;;;;;;;;;;;;
2024/01/14 01:25:44;;;;;;;23.9;15.9;;;;;;;;;;;;;
2024/01/14 01:28:11;;;;;;;27.1;15.5;;;;;;;;;;;;;
2024/01/14 01:30:36;;;;;;;29.5;18.2;;;;;;;;;;;;;
2024/01/14 01:33:01;;;;;;;25.2;14.7;;;;;;;;;;;;;
2024/01/14 01:35:26;;;;;;;24.2;15.2;;;;;;;;;;;;;
2024/01/14 01:37:54;;;;;;;21.1;13.8;;;;;;;;;;;;;
2024/01/14 01:40:19;;;;;;;21;12.7;;;;;;;;;;;;;
2024/01/14 01:42:45;;;;;;;19.7;12.6;;;;;;;;;;;;;
2024/01/14 01:45:11;;;;;;;21.9;13.4;;;;;;;;;;;;;
2024/01/14 01:47:38;;;;;;;26.4;16.3;;;;;;;;;;;;;
2024/01/14 01:50:02;;;;;;;26.4;15.4;;;;;;;;;;;;;
2024/01/14 01:52:30;;;;;;;24.8;14.8;;;;;;;;;;;;;
2024/01/14 01:54:55;;;;;;;26.4;15.1;;;;;;;;;;;;;
2024/01/14 01:57:23;;;;;;;26.9;15.8;;;;;;;;;;;;;
2024/01/14 01:59:48;;;;;;;24.4;14.4;;;;;;;;;;;;;
2024/01/14 02:02:17;;;;;;;19.8;13.1;;;;;;;;;;;;;
2024/01/14 02:04:46;;;;;;;20.9;13.7;;;;;;;;;;;;;
2024/01/14 02:07:11;;;;;;;22.9;14;;;;;;;;;;;;;
2024/01/14 02:09:37;;;;;;;20.9;14;;;;;;;;;;;;;
2024/01/14 02:12:02;;;;;;;22.2;13.4;;;;;;;;;;;;;
2024/01/14 02:14:29;;;;;;;24;14.9;;;;;;;;;;;;;
2024/01/14 02:16:55;;;;;;;22.8;14.5;;;;;;;;;;;;;
2024/01/14 02:19:24;;;;;;;20;12.8;;;;;;;;;;;;;
2024/01/14 02:21:53;;;;;;;24.3;13.3;;;;;;;;;;;;;
2024/01/14 02:24:18;;;;;;;22;13.3;;;;;;;;;;;;;
2024/01/14 02:26:46;;;;;;;20.3;12;;;;;;;;;;;;;
2024/01/14 02:29:11;;;;;;;21.4;11.8;;;;;;;;;;;;;
2024/01/14 02:31:37;;;;;;;17.6;11.8;;;;;;;;;;;;;
2024/01/14 02:34:03;;;;;;;15;10.2;;;;;;;;;;;;;
2024/01/14 02:36:30;;;;;;;18.9;11.5;;;;;;;;;;;;;
2024/01/14 02:38:55;;;;;;;17.8;10.8;;;;;;;;;;;;;
2024/01/14 02:41:24;;;;;;;16.8;10;;;;;;;;;;;;;
2024/01/14 02:43:48;;;;;;;15.3;9.9;;;;;;;;;;;;;
2024/01/14 02:46:17;;;;;;;16.5;10;;;;;;;;;;;;;
2024/01/14 02:48:41;;;;;;;19.1;11.1;;;;;;;;;;;;;
2024/01/14 02:51:07;;;;;;;19.7;11;;;;;;;;;;;;;
2024/01/14 02:53:32;;;;;;;19.2;11.2;;;;;;;;;;;;;
2024/01/14 02:55:58;;;;;;;17.2;11.3;;;;;;;;;;;;;
2024/01/14 02:58:23;;;;;;;16.2;9.7;;;;;;;;;;;;;
2024/01/14 03:00:52;;;;;;;15.8;10.2;;;;;;;;;;;;;
2024/01/14 03:03:17;;;;;;;16.9;10.5;;;;;;;;;;;;;
2024/01/14 03:05:46;;;;;;;17.1;10.6;;;;;;;;;;;;;
2024/01/14 03:08:11;;;;;;;38.5;19.5;;;;;;;;;;;;;
2024/01/14 03:10:40;;;;;;;29.2;15.4;;;;;;;;;;;;;
2024/01/14 03:13:13;;;;;;;19.3;12;;;;;;;;;;;;;
2024/01/14 03:15:36;;;;;;;17.7;10.9;;;;;;;;;;;;;
2024/01/14 03:18:06;;;;;;;18.9;11.9;;;;;;;;;;;;;
2024/01/14 03:20:32;;;;;;;18.1;11.6;;;;;;;;;;;;;
2024/01/14 03:22:56;;;;;;;23;12.6;;;;;;;;;;;;;
2024/01/14 03:25:26;;;;;;;20.9;11.5;;;;;;;;;;;;;
2024/01/14 03:27:56;;;;;;;15.3;10;;;;;;;;;;;;;
2024/01/14 03:30:28;;;;;;;16.5;9.9;;;;;;;;;;;;;
2024/01/14 03:33:02;;;;;;;16.7;10.4;;;;;;;;;;;;;
2024/01/14 03:35:32;;;;;;;14.6;9.5;;;;;;;;;;;;;
2024/01/14 03:38:03;;;;;;;14.3;8.9;;;;;;;;;;;;;
2024/01/14 03:40:35;;;;;;;13.4;8.7;;;;;;;;;;;;;
2024/01/14 03:43:05;;;;;;;16.9;9.8;;;;;;;;;;;;;
2024/01/14 03:45:37;;;;;;;12.9;7.7;;;;;;;;;;;;;
2024/01/14 03:48:08;;;;;;;13.5;8.2;;;;;;;;;;;;;
2024/01/14 03:50:38;;;;;;;13.5;8.1;;;;;;;;;;;;;
2024/01/14 03:53:09;;;;;;;11.6;7.3;;;;;;;;;;;;;
2024/01/14 03:55:40;;;;;;;12;7.8;;;;;;;;;;;;;
2024/01/14 03:58:10;;;;;;;11.6;7.2;;;;;;;;;;;;;
2024/01/14 04:02:34;;;;;;;13;7.7;;;;;;;-5.2;82.01074;933.4911;;;;
2024/01/14 04:05:03;;;;;;;11.1;7.5;;;;;;;-5.2;81.83496;933.4781;;;;
2024/01/14 04:07:30;;;;;;;11.1;7.4;;;;;;;-5.16;82.34766;933.5197;;;;
2024/01/14 04:10:03;;;;;;;9.1;6.3;;;;;;;-5.03;82.05371;933.4241;;;;
2024/01/14 04:12:34;;;;;;;10.9;6.4;;;;;;;-5.09;82.35254;933.4801;;;;
2024/01/14 04:14:59;;;;;;;8.9;6.1;;;;;;;-5.1;82.91016;933.4289;;;;
2024/01/14 04:17:32;;;;;;;8.7;6.3;;;;;;;-5.2;82.87988;933.4214;;;;
2024/01/14 04:19:58;;;;;;;10.1;6.4;;;;;;;-5.18;83.04688;933.4139;;;;
2024/01/14 04:22:27;;;;;;;8.9;6.2;;;;;;;;;;;;;
2024/01/14 04:24:55;;;;;;;9.5;6.3;;;;;;;;;;;;;
2024/01/14 04:27:20;;;;;;;8.7;5.4;;;;;;;;;;;;;
2024/01/14 04:29:50;;;;;;;8;5.6;;;;;;;;;;;;;
2024/01/14 04:32:20;;;;;;;9.7;5.8;;;;;;;;;;;;;
2024/01/14 04:34:46;;;;;;;8.1;5.9;;;;;;;;;;;;;
2024/01/14 04:37:16;;;;;;;10.7;6.3;;;;;;;;;;;;;
2024/01/14 04:39:48;;;;;;;7.7;5.5;;;;;;;;;;;;;
2024/01/14 04:42:21;;;;;;;9.1;5.8;;;;;;;;;;;;;
2024/01/14 04:44:43;;;;;;;9.6;5.3;;;;;;;;;;;;;
2024/01/14 04:47:12;;;;;;;10.2;5.3;;;;;;;;;;;;;
2024/01/14 04:49:41;;;;;;;8;5.3;;;;;;;;;;;;;
2024/01/14 04:52:06;;;;;;;8.5;4.8;;;;;;;;;;;;;
2024/01/14 04:54:35;;;;;;;7;4.9;;;;;;;;;;;;;
2024/01/14 04:57:05;;;;;;;6.4;4.5;;;;;;;;;;;;;
2024/01/14 04:59:36;;;;;;;8.9;4.9;;;;;;;;;;;;;
2024/01/14 05:02:01;;;;;;;6.9;4.7;;;;;;;;;;;;;
2024/01/14 05:04:30;;;;;;;6.4;4.3;;;;;;;;;;;;;
2024/01/14 05:06:55;;;;;;;6;3.9;;;;;;;;;;;;;
2024/01/14 05:09:23;;;;;;;38.6;21.2;;;;;;;;;;;;;
2024/01/14 05:11:47;;;;;;;22;10.9;;;;;;;;;;;;;
2024/01/14 05:14:14;;;;;;;15.3;9.4;;;;;;;;;;;;;
2024/01/14 05:16:39;;;;;;;8.6;5.5;;;;;;;;;;;;;
2024/01/14 05:19:06;;;;;;;6.6;5.4;;;;;;;;;;;;;
2024/01/14 05:21:31;;;;;;;6.8;4.8;;;;;;;;;;;;;
2024/01/14 05:23:58;;;;;;;9;5.1;;;;;;;;;;;;;
2024/01/14 05:26:24;;;;;;;14.1;6.5;;;;;;;;;;;;;
2024/01/14 05:28:48;;;;;;;14.2;7.6;;;;;;;;;;;;;
2024/01/14 05:31:17;;;;;;;13.7;7.4;;;;;;;;;;;;;
2024/01/14 05:33:48;;;;;;;10.8;7.1;;;;;;;;;;;;;
2024/01/14 05:36:14;;;;;;;12.2;8.3;;;;;;;;;;;;;
2024/01/14 05:38:43;;;;;;;11.9;7;;;;;;;;;;;;;
2024/01/14 05:41:14;;;;;;;11.5;6.6;;;;;;;;;;;;;
2024/01/14 05:43:44;;;;;;;14;7.2;;;;;;;;;;;;;
2024/01/14 05:46:15;;;;;;;11.6;7.2;;;;;;;;;;;;;
2024/01/14 05:48:47;;;;;;;14.9;6.9;;;;;;;;;;;;;
2024/01/14 05:51:18;;;;;;;21.4;11.3;;;;;;;;;;;;;
2024/01/14 05:53:47;;;;;;;31.1;17.3;;;;;;;;;;;;;
2024/01/14 05:56:16;;;;;;;32.1;17.4;;;;;;;;;;;;;
2024/01/14 05:58:42;;;;;;;29.1;16.5;;;;;;;;;;;;;
2024/01/14 06:01:10;;;;;;;30.2;17.9;;;;;;;;;;;;;
2024/01/14 06:03:36;;;;;;;50.4;26.2;;;;;;;;;;;;;
2024/01/14 06:06:05;;;;;;;39.3;20.5;;;;;;;;;;;;;
2024/01/14 06:08:32;;;;;;;27.3;15.7;;;;;;;;;;;;;
2024/01/14 06:10:57;;;;;;;22.1;13;;;;;;;;;;;;;
2024/01/14 06:13:25;;;;;;;20;12;;;;;;;;;;;;;
2024/01/14 06:15:51;;;;;;;19.6;11.1;;;;;;;;;;;;;
2024/01/14 06:18:19;;;;;;;14.7;8.4;;;;;;;;;;;;;
2024/01/14 06:20:44;;;;;;;17.1;9;;;;;;;;;;;;;
2024/01/14 06:23:19;;;;;;;24.8;11.9;;;;;;;;;;;;;
2024/01/14 06:25:42;;;;;;;25;13.1;;;;;;;;;;;;;
2024/01/14 06:28:10;;;;;;;17.2;9.4;;;;;;;;;;;;;
2024/01/14 06:30:35;;;;;;;11.5;7.3;;;;;;;;;;;;;
2024/01/14 06:33:02;;;;;;;13;7.5;;;;;;;;;;;;;
2024/01/14 06:35:27;;;;;;;11.9;6.9;;;;;;;;;;;;;
2024/01/14 06:37:57;;;;;;;10.5;6.3;;;;;;;;;;;;;
2024/01/14 06:40:27;;;;;;;9.7;5.9;;;;;;;;;;;;;
2024/01/14 06:43:01;;;;;;;10.7;6.6;;;;;;;;;;;;;
2024/01/14 06:45:27;;;;;;;9.9;5.3;;;;;;;;;;;;;
2024/01/14 06:47:49;;;;;;;14.3;8.7;;;;;;;;;;;;;
2024/01/14 06:50:14;;;;;;;15.5;8.4;;;;;;;;;;;;;
2024/01/14 06:52:39;;;;;;;13.1;7.4;;;;;;;;;;;;;
2024/01/14 06:55:09;;;;;;;8.2;4.9;;;;;;;;;;;;;
2024/01/14 06:57:34;;;;;;;4.2;3.4;;;;;;;;;;;;;
2024/01/14 07:00:01;;;;;;;4.8;3.1;;;;;;;;;;;;;
2024/01/14 07:02:25;;;;;;;3.9;3.2;;;;;;;;;;;;;
2024/01/14 07:04:55;;;;;;;8.3;4.7;;;;;;;;;;;;;
2024/01/14 07:07:20;;;;;;;9.8;6;;;;;;;;;;;;;
2024/01/14 07:09:48;;;;;;;12.2;7.4;;;;;;;;;;;;;
2024/01/14 07:12:13;;;;;;;18.4;9.5;;;;;;;;;;;;;
2024/01/14 07:14:39;;;;;;;16.4;9.9;;;;;;;;;;;;;
2024/01/14 07:17:04;;;;;;;15.6;10;;;;;;;;;;;;;
2024/01/14 07:19:32;;;;;;;17.1;11.1;;;;;;;;;;;;;
2024/01/14 07:21:58;;;;;;;17.1;10.4;;;;;;;;;;;;;
2024/01/14 07:24:25;;;;;;;18;10.7;;;;;;;;;;;;;
2024/01/14 07:26:50;;;;;;;19.3;10.7;;;;;;;;;;;;;
2024/01/14 07:29:16;;;;;;;17.7;10.6;;;;;;;;;;;;;
2024/01/14 07:31:41;;;;;;;18;10.7;;;;;;;;;;;;;
2024/01/14 07:34:08;;;;;;;17.6;10.3;;;;;;;;;;;;;
2024/01/14 07:36:32;;;;;;;17.7;10.7;;;;;;;;;;;;;
2024/01/14 07:39:00;;;;;;;18.8;10.6;;;;;;;;;;;;;
2024/01/14 07:41:24;;;;;;;19.3;11.5;;;;;;;;;;;;;
2024/01/14 07:43:52;;;;;;;21.7;12.3;;;;;;;;;;;;;
2024/01/14 07:46:17;;;;;;;21.6;12.6;;;;;;;;;;;;;
2024/01/14 07:48:44;;;;;;;22.7;13.3;;;;;;;;;;;;;
2024/01/14 07:51:09;;;;;;;23.6;13.7;;;;;;;;;;;;;
2024/01/14 07:53:34;;;;;;;19.5;12.8;;;;;;;;;;;;;
2024/01/14 07:55:59;;;;;;;19.8;12.5;;;;;;;;;;;;;
2024/01/14 07:58:29;;;;;;;22.8;13.3;;;;;;;;;;;;;
2024/01/14 08:00:57;;;;;;;22.3;13;;;;;;;;;;;;;
2024/01/14 08:03:22;;;;;;;22.2;13.6;;;;;;;;;;;;;
2024/01/14 08:05:48;;;;;;;25.3;14.5;;;;;;;;;;;;;
2024/01/14 08:08:14;;;;;;;24;13.6;;;;;;;;;;;;;
2024/01/14 08:10:41;;;;;;;23.6;13.7;;;;;;;;;;;;;
2024/01/14 08:13:05;;;;;;;22.2;13.8;;;;;;;;;;;;;
2024/01/14 08:15:32;;;;;;;25.4;14.3;;;;;;;;;;;;;
2024/01/14 08:17:57;;;;;;;24.1;14.4;;;;;;;;;;;;;
2024/01/14 08:20:25;;;;;;;24.1;13.6;;;;;;;;;;;;;
2024/01/14 08:22:48;;;;;;;21.4;12.6;;;;;;;;;;;;;
2024/01/14 08:25:20;;;;;;;22.1;13.4;;;;;;;;;;;;;
2024/01/14 08:27:45;;;;;;;20.7;12.9;;;;;;;;;;;;;
2024/01/14 08:30:10;;;;;;;21;12.8;;;;;;;;;;;;;
2024/01/14 08:32:38;;;;;;;20.7;13.2;;;;;;;;;;;;;
2024/01/14 08:35:03;;;;;;;20.7;13.6;;;;;;;;;;;;;
2024/01/14 08:37:33;;;;;;;23.9;13.5;;;;;;;;;;;;;
2024/01/14 08:40:02;;;;;;;22.1;14.1;;;;;;;;;;;;;
2024/01/14 08:42:27;;;;;;;21.1;13.6;;;;;;;;;;;;;
2024/01/14 08:44:53;;;;;;;25.5;14;;;;;;;;;;;;;
2024/01/14 08:47:19;;;;;;;21.2;13.4;;;;;;;;;;;;;
2024/01/14 08:49:45;;;;;;;23.9;14.7;;;;;;;;;;;;;
2024/01/14 08:52:11;;;;;;;24;15;;;;;;;;;;;;;
2024/01/14 08:54:39;;;;;;;23.2;14.6;;;;;;;;;;;;;
2024/01/14 08:57:04;;;;;;;23.8;15.7;;;;;;;;;;;;;
2024/01/14 08:59:31;;;;;;;24.3;15.6;;;;;;;;;;;;;
2024/01/14 09:01:56;;;;;;;26.1;15.8;;;;;;;;;;;;;
2024/01/14 09:04:21;;;;;;;23.5;15.1;;;;;;;;;;;;;
2024/01/14 09:06:47;;;;;;;25.3;15.7;;;;;;;;;;;;;
2024/01/14 09:09:15;;;;;;;24.5;15.4;;;;;;;;;;;;;
2024/01/14 09:11:40;;;;;;;24.3;15.8;;;;;;;;;;;;;
2024/01/14 09:14:07;;;;;;;25.3;15.6;;;;;;;;;;;;;
2024/01/14 09:16:32;;;;;;;22.8;14.7;;;;;;;;;;;;;
2024/01/14 09:18:58;;;;;;;23.6;15.6;;;;;;;;;;;;;
2024/01/14 09:21:25;;;;;;;26.2;15.8;;;;;;;;;;;;;
2024/01/14 09:23:50;;;;;;;24.7;15.5;;;;;;;;;;;;;
2024/01/14 09:26:15;;;;;;;26.2;15.7;;;;;;;;;;;;;
2024/01/14 09:28:43;;;;;;;25.1;15.4;;;;;;;;;;;;;
2024/01/14 09:31:08;;;;;;;24.5;15.2;;;;;;;;;;;;;
2024/01/14 09:33:34;;;;;;;24.9;15.7;;;;;;;;;;;;;
2024/01/14 09:36:01;;;;;;;25.5;16;;;;;;;;;;;;;
2024/01/14 09:38:30;;;;;;;23.2;14.8;;;;;;;;;;;;;
2024/01/14 09:41:00;;;;;;;23.2;14.3;;;;;;;;;;;;;
2024/01/14 09:43:25;;;;;;;23.8;14.4;;;;;;;;;;;;;
2024/01/14 09:45:50;;;;;;;19.5;13.7;;;;;;;;;;;;;
2024/01/14 09:48:19;;;;;;;23.4;13.8;;;;;;;;;;;;;
2024/01/14 09:50:48;;;;;;;18.2;11.8;;;;;;;;;;;;;
2024/01/14 09:53:14;;;;;;;16.1;11;;;;;;;;;;;;;
2024/01/14 09:55:38;;;;;;;18.1;10.9;;;;;;;;;;;;;
2024/01/14 09:58:06;;;;;;;16.6;11.2;;;;;;;;;;;;;
2024/01/14 10:00:31;;;;;;;14.7;9.6;;;;;;;;;;;;;
2024/01/14 10:03:01;;;;;;;12.8;9.1;;;;;;;;;;;;;
2024/01/14 10:05:26;;;;;;;14.3;9.4;;;;;;;;;;;;;
2024/01/14 10:07:53;;;;;;;13.5;9.1;;;;;;;;;;;;;
2024/01/14 10:10:18;;;;;;;16.6;10;;;;;;;;;;;;;
2024/01/14 10:12:46;;;;;;;16.2;10.8;;;;;;;;;;;;;
2024/01/14 10:15:11;;;;;;;15.5;11.2;;;;;;;;;;;;;
2024/01/14 10:17:39;;;;;;;16.8;11.3;;;;;;;;;;;;;
2024/01/14 10:20:06;;;;;;;16.8;10.7;;;;;;;;;;;;;
2024/01/14 10:22:30;;;;;;;15.2;10.3;;;;;;;;;;;;;
2024/01/14 10:24:57;;;;;;;19.2;12.7;;;;;;;;;;;;;
2024/01/14 10:27:22;;;;;;;18.6;12;;;;;;;;;;;;;
2024/01/14 10:29:51;;;;;;;18.3;11.9;;;;;;;;;;;;;
2024/01/14 10:32:15;;;;;;;20.9;12.1;;;;;;;;;;;;;
2024/01/14 10:34:40;;;;;;;39.2;20.6;;;;;;;;;;;;;
2024/01/14 10:37:05;;;;;;;18.1;11.7;;;;;;;;;;;;;
2024/01/14 10:39:33;;;;;;;18.4;11.8;;;;;;;;;;;;;
2024/01/14 10:41:58;;;;;;;15.9;11.2;;;;;;;;;;;;;
2024/01/14 10:44:25;;;;;;;13.7;9.4;;;;;;;;;;;;;
2024/01/14 10:46:50;;;;;;;13.9;9.9;;;;;;;;;;;;;
2024/01/14 10:49:17;;;;;;;28.7;16.4;;;;;;;;;;;;;
2024/01/14 10:51:42;;;;;;;19.1;13;;;;;;;;;;;;;
2024/01/14 10:54:07;;;;;;;16.7;10.8;;;;;;;;;;;;;
2024/01/14 10:56:33;;;;;;;18.2;10.9;;;;;;;;;;;;;
2024/01/14 10:58:58;;;;;;;20;13.9;;;;;;;;;;;;;
2024/01/14 11:01:23;;;;;;;17.1;11.3;;;;;;;;;;;;;
2024/01/14 11:03:51;;;;;;;18.6;12.6;;;;;;;;;;;;;
2024/01/14 11:06:18;;;;;;;13.2;8.8;;;;;;;;;;;;;
2024/01/14 11:08:42;;;;;;;14.1;9.1;;;;;;;;;;;;;
2024/01/14 11:11:11;;;;;;;24.2;13.9;;;;;;;;;;;;;
2024/01/14 11:13:39;;;;;;;21.2;14.1;;;;;;;;;;;;;
2024/01/14 11:16:05;;;;;;;16.6;11;;;;;;;;;;;;;
2024/01/14 11:18:31;;;;;;;19;13.3;;;;;;;;;;;;;
2024/01/14 11:20:56;;;;;;;16.4;10.5;;;;;;;;;;;;;
2024/01/14 11:23:21;;;;;;;15.7;10;;;;;;;;;;;;;
2024/01/14 11:25:47;;;;;;;15.8;9.6;;;;;;;;;;;;;
2024/01/14 11:28:12;;;;;;;15.3;9.4;;;;;;;;;;;;;
2024/01/14 11:30:39;;;;;;;16.1;10.1;;;;;;;;;;;;;
2024/01/14 11:33:05;;;;;;;13;7.9;;;;;;;;;;;;;
2024/01/14 11:35:32;;;;;;;9.2;5.8;;;;;;;;;;;;;
2024/01/14 11:37:57;;;;;;;10.1;5.9;;;;;;;;;;;;;
2024/01/14 11:40:24;;;;;;;8.8;5.4;;;;;;;;;;;;;
2024/01/14 11:42:50;;;;;;;8.2;5.3;;;;;;;;;;;;;
2024/01/14 11:45:14;;;;;;;6.2;4.4;;;;;;;;;;;;;
2024/01/14 11:47:39;;;;;;;6.4;4.3;;;;;;;;;;;;;
2024/01/14 11:50:10;;;;;;;6.1;4.3;;;;;;;;;;;;;
2024/01/14 11:52:39;;;;;;;463.9;195.4;;;;;;;;;;;;;
2024/01/14 11:55:04;;;;;;;163.1;65.9;;;;;;;;;;;;;
2024/01/14 11:57:34;;;;;;;33;16.3;;;;;;;;;;;;;
2024/01/14 12:00:02;;;;;;;26.7;11.9;;;;;;;;;;;;;
2024/01/14 12:02:27;;;;;;;49.5;16.8;;;;;;;;;;;;;
2024/01/14 12:04:55;;;;;;;21.3;10.1;;;;;;;;;;;;;
2024/01/14 12:07:19;;;;;;;14;8.3;;;;;;;;;;;;;
2024/01/14 12:09:52;;;;;;;17;7.4;;;;;;;;;;;;;
2024/01/14 12:12:16;;;;;;;15.3;8.4;;;;;;;;;;;;;
2024/01/14 12:14:43;;;;;;;15.3;8.8;;;;;;;;;;;;;
2024/01/14 12:17:08;;;;;;;12.8;7.5;;;;;;;;;;;;;
2024/01/14 12:19:36;;;;;;;13.2;7.4;;;;;;;;;;;;;
2024/01/14 12:22:01;;;;;;;12.8;7.8;;;;;;;;;;;;;
2024/01/14 12:24:29;;;;;;;11.8;6.7;;;;;;;;;;;;;
2024/01/14 12:26:57;;;;;;;14.7;7.4;;;;;;;;;;;;;
2024/01/14 12:29:18;;;;;;;11.4;7.1;;;;;;;;;;;;;
2024/01/14 12:31:45;;;;;;;13.4;7.7;;;;;;;;;;;;;
2024/01/14 12:34:10;;;;;;;13.1;8;;;;;;;;;;;;;
2024/01/14 12:36:35;;;;;;;11.5;6.8;;;;;;;;;;;;;
2024/01/14 12:39:02;;;;;;;9.5;6.4;;;;;;;;;;;;;
2024/01/14 12:41:26;;;;;;;8.7;5.8;;;;;;;;;;;;;
2024/01/14 12:43:51;;;;;;;6.8;4.8;;;;;;;;;;;;;
2024/01/14 12:46:16;;;;;;;7.4;4.8;;;;;;;;;;;;;
2024/01/14 12:48:41;;;;;;;8.8;5.1;;;;;;;;;;;;;
2024/01/14 12:53:34;;;;;;;8.4;5.7;;;;;;;1.38;67.40137;928.7131;;;;
2024/01/14 12:56:01;;;;;;;9.5;5.9;;;;;;;1.23;68.2832;928.6986;;;;
2024/01/14 12:58:27;;;;;;;9.6;6.3;;;;;;;1.21;69.07227;928.6533;;;;
2024/01/14 13:00:59;;;;;;;11;7;;;;;;;1.2;69.62891;928.6692;;;;
2024/01/14 13:03:36;;;;;;;14.7;9.8;;;;;;;1.15;70.15918;928.6742;;;;
2024/01/14 13:06:01;;;;;;;16.8;11.3;;;;;;;1.16;70.4834;928.6406;;;;
2024/01/14 13:08:29;;;;;;;21.2;11.6;;;;;;;1.1;70.875;928.5848;;;;
2024/01/14 13:10:55;;;;;;;17.9;10.9;;;;;;;1.05;70.52051;928.5034;;;;
2024/01/14 13:13:21;;;;;;;15.3;9.8;;;;;;;0.97;70.94141;928.4805;;;;
2024/01/14 13:15:56;;;;;;;17.9;11.8;;;;;;;0.97;71.92578;928.4908;;;;
2024/01/14 13:18:27;;;;;;;17.3;11.7;;;;;;;1.02;71.7334;928.3851;;;;
2024/01/14 13:20:59;;;;;;;16.1;11;;;;;;;0.99;71.79297;928.3384;;;;
2024/01/14 13:23:24;;;;;;;21.2;12.7;;;;;;;0.96;72.20313;928.358;;;;
2024/01/14 13:25:50;;;;;;;18.9;12.5;;;;;;;0.93;72.35352;928.2676;;;;
2024/01/14 13:28:16;;;;;;;19.1;11.9;;;;;;;0.96;72.30371;928.2342;;;;
2024/01/14 13:30:42;;;;;;;18.3;12;;;;;;;0.93;72.60938;928.1182;;;;
2024/01/14 13:33:08;;;;;;;21.2;11.9;;;;;;;0.93;72.69922;928.1989;;;;
2024/01/14 13:35:39;;;;;;;21.2;13.2;;;;;;;0.89;73.12793;928.1342;;;;
2024/01/14 13:38:05;;;;;;;22.5;13.3;;;;;;;0.79;72.87695;928.2031;;;;
2024/01/14 13:40:36;;;;;;;21.3;13.7;;;;;;;0.71;73.21777;928.1953;;;;
2024/01/14 13:43:04;;;;;;;21.6;13.8;;;;;;;0.67;73.59277;928.2224;;;;
2024/01/14 13:45:33;;;;;;;19.9;12.8;;;;;;;0.65;74.0459;928.1739;;;;
2024/01/14 13:48:03;;;;;;;23.3;13.6;;;;;;;0.62;73.45117;928.2813;;;;
2024/01/14 13:50:28;;;;;;;23.5;13.9;;;;;;;0.56;73.5166;928.1584;;;;
2024/01/14 13:52:57;;;;;;;23.2;13.8;;;;;;;0.55;73.34766;928.2498;;;;
2024/01/14 13:55:24;;;;;;;23.7;14.5;;;;;;;0.5;73.50684;928.0783;;;;
2024/01/14 13:57:49;;;;;;;22.7;14.4;;;;;;;0.49;73.58398;928.082;;;;
2024/01/14 14:00:15;;;;;;;22;14.6;;;;;;;0.39;73.75586;928.1359;;;;
2024/01/14 14:02:47;;;;;;;22.3;14.5;;;;;;;0.37;73.98535;928.0889;;;;
2024/01/14 14:05:18;;;;;;;23.5;13.7;;;;;;;0.32;74.2002;928.1666;;;;
2024/01/14 14:07:45;;;;;;;23.5;14.2;;;;;;;0.24;73.65137;928.1805;;;;
2024/01/14 14:10:21;;;;;;;23.2;13.6;;;;;;;0.09;73.77051;928.1577;;;;
2024/01/14 14:12:48;;;;;;;25.4;15.2;;;;;;;0.02;74.23535;928.1912;;;;
2024/01/14 14:15:14;;;;;;;24;15;;;;;;;-0.03;74.14063;928.1465;;;;
2024/01/14 14:17:44;;;;;;;22.4;14.5;;;;;;;-0.1;74.10352;928.1347;;;;
2024/01/14 14:20:18;;;;;;;24.9;14.8;;;;;;;-0.11;74.80371;928.1445;;;;
2024/01/14 14:22:55;;;;;;;24.4;15.1;;;;;;;-0.13;75.05664;928.1495;;;;
2024/01/14 14:25:21;;;;;;;24.5;15.2;;;;;;;-0.11;75.37109;928.0908;;;;
2024/01/14 14:27:48;;;;;;;25.2;14.2;;;;;;;-0.09;75.36328;928.1092;;;;
2024/01/14 14:30:16;;;;;;;29;18.1;;;;;;;-0.13;76.11426;928.1337;;;;
2024/01/14 14:32:47;;;;;;;29.6;16.4;;;;;;;-0.11;76.27344;928.1291;;;;
2024/01/14 14:35:18;;;;;;;25.3;15.3;;;;;;;-0.12;76.20703;928.0184;;;;
2024/01/14 14:37:45;;;;;;;25.4;15.3;;;;;;;-0.06;76.10352;928.1258;;;;
2024/01/14 14:40:17;;;;;;;26.1;16.4;;;;;;;-0.12;76.32813;927.9955;;;;
2024/01/14 14:42:47;;;;;;;24.1;15.3;;;;;;;-0.13;76.01465;928.0728;;;;
2024/01/14 14:45:16;;;;;;;26.9;16.8;;;;;;;-0.17;76.3418;927.9911;;;;
2024/01/14 14:47:49;;;;;;;29.8;16.9;;;;;;;-0.19;76.57031;927.9833;;;;
2024/01/14 14:50:18;;;;;;;29.5;17.1;;;;;;;-0.18;76.60547;928.0226;;;;
2024/01/14 14:52:45;;;;;;;27.7;16.7;;;;;;;-0.18;76.58496;927.9219;;;;
2024/01/14 14:55:20;;;;;;;27.8;17;;;;;;;-0.19;77.06055;927.9146;;;;
2024/01/14 14:57:53;;;;;;;57.2;27.8;;;;;;;-0.17;76.9209;927.9464;;;;
2024/01/14 15:00:21;;;;;;;34.3;20.3;;;;;;;-0.14;77.2041;927.8223;;;;
2024/01/14 15:02:51;;;;;;;59.6;28.9;;;;;;;-0.19;77.47266;927.8605;;;;
2024/01/14 15:05:21;;;;;;;72;32.5;;;;;;;-0.21;77.625;927.8783;;;;
2024/01/14 15:07:54;;;;;;;45.7;22.3;;;;;;;-0.2;77.58203;927.8949;;;;
2024/01/14 15:10:20;;;;;;;32.7;19.7;;;;;;;-0.17;77.75586;927.8651;;;;
2024/01/14 15:12:51;;;;;;;36.5;20.7;;;;;;;-0.22;77.74609;927.7966;;;;
2024/01/14 15:15:15;;;;;;;33.1;19.7;;;;;;;-0.27;77.53711;927.7981;;;;
2024/01/14 15:17:43;;;;;;;33.8;20.2;;;;;;;-0.28;77.50098;927.7875;;;;
2024/01/14 15:20:11;;;;;;;32.6;21.1;;;;;;;-0.31;77.90723;927.7633;;;;
2024/01/14 15:22:40;;;;;;;35.3;21;;;;;;;-0.32;77.68262;927.723;;;;
2024/01/14 15:25:05;;;;;;;34.9;20.1;;;;;;;-0.37;77.80859;927.723;;;;
2024/01/14 15:27:38;;;;;;;31.6;19.9;;;;;;;-0.47;78.96777;927.6319;;;;
2024/01/14 15:30:19;;;;;;;35.6;21;;;;;;;-0.52;78.62598;927.5918;;;;
2024/01/14 15:32:52;;;;;;;42.7;23.5;;;;;;;-0.53;78.93555;927.6658;;;;
2024/01/14 15:35:23;;;;;;;41.7;25.5;;;;;;;-0.66;78.84375;927.5673;;;;
2024/01/14 15:37:56;;;;;;;45.1;26.4;;;;;;;-0.81;79.90723;927.6749;;;;
2024/01/14 15:40:29;;;;;;;45.9;26.8;;;;;;;-0.83;80.0918;927.6145;;;;
2024/01/14 15:43:02;;;;;;;45.9;26.3;;;;;;;-0.9;80.2207;927.616;;;;
2024/01/14 15:45:36;;;;;;;44.8;25.6;;;;;;;-1.03;79.99609;927.6526;;;;
2024/01/14 15:48:02;;;;;;;38.7;22.7;;;;;;;-1.06;79.86914;927.637;;;;
2024/01/14 15:50:29;;;;;;;41.3;24.7;;;;;;;-1.03;79.81836;927.5535;;;;
2024/01/14 15:52:54;;;;;;;40.1;23.5;;;;;;;-1.06;80.31348;927.5276;;;;
2024/01/14 15:55:19;;;;;;;41.4;23.7;;;;;;;-1.02;79.79785;927.4492;;;;
2024/01/14 15:57:51;;;;;;;37.6;22.2;;;;;;;-1.04;80.08496;927.4446;;;;
2024/01/14 16:00:21;;;;;;;39.1;23.3;;;;;;;-1.04;80.31641;927.4382;;;;
2024/01/14 16:02:53;;;;;;;44.1;24;;;;;;;-1.05;79.56934;927.4847;;;;
2024/01/14 16:05:21;;;;;;;48.5;27.3;;;;;;;-1.09;80.00977;927.4665;;;;
2024/01/14 16:07:52;;;;;;;46.6;26.8;;;;;;;-1.13;79.95508;927.4703;;;;
2024/01/14 16:10:18;;;;;;;47;27.6;;;;;;;-1.17;79.25781;927.4048;;;;
2024/01/14 16:12:43;;;;;;;75;43.7;;;;;;;-1.14;81.14258;927.3864;;;;
2024/01/14 16:15:20;;;;;;;130.7;69.2;;;;;;;-1.21;81.86328;927.3699;;;;
2024/01/14 16:17:47;;;;;;;89.3;49.5;;;;;;;-1.18;82.06836;927.3859;;;;
2024/01/14 16:20:15;;;;;;;62.5;38.4;;;;;;;-1.2;82.97559;927.4133;;;;
2024/01/14 16:22:42;;;;;;;87.7;48.8;;;;;;;-1.27;82.47461;927.3264;;;;
2024/01/14 16:25:09;;;;;;;77.7;47.1;;;;;;;-1.31;82.23242;927.2562;;;;
2024/01/14 16:27:35;;;;;;;78.4;47.6;;;;;;;-1.36;82.37695;927.267;;;;
2024/01/14 16:30:00;;;;;;;58.7;37;;;;;;;-1.36;83.06543;927.2598;;;;
2024/01/14 16:32:25;;;;;;;60.4;39.3;;;;;;;-1.42;82.57617;927.1707;;;;
2024/01/14 16:34:50;;;;;;;64.2;38.6;;;;;;;;;;;;;
2024/01/14 16:37:17;;;;;;;76.1;46.4;;;;;;;;;;;;;
2024/01/14 16:39:42;;;;;;;65;39.7;;;;;;;;;;;;;
2024/01/14 16:42:07;;;;;;;65.7;39.4;;;;;;;;;;;;;
2024/01/14 16:44:33;;;;;;;57.3;36.3;;;;;;;;;;;;;
2024/01/14 16:47:00;;;;;;;55.9;36;;;;;;;;;;;;;
2024/01/14 16:49:25;;;;;;;55.6;37.3;;;;;;;;;;;;;
2024/01/14 16:51:52;;;;;;;52;33.2;;;;;;;;;;;;;
2024/01/14 16:54:17;;;;;;;54.3;33.5;;;;;;;;;;;;;
2024/01/14 16:56:42;;;;;;;59.2;35.1;;;;;;;;;;;;;
2024/01/14 16:59:07;;;;;;;54.6;33.6;;;;;;;;;;;;;
2024/01/14 17:01:35;;;;;;;59.8;36.2;;;;;;;;;;;;;
2024/01/14 17:04:00;;;;;;;57.5;36;;;;;;;;;;;;;
2024/01/14 17:06:27;;;;;;;62.6;38.5;;;;;;;;;;;;;
2024/01/14 17:08:53;;;;;;;61.5;36.3;;;;;;;;;;;;;
2024/01/14 17:11:20;;;;;;;58.7;35.6;;;;;;;;;;;;;
2024/01/14 17:13:45;;;;;;;69.6;41.2;;;;;;;;;;;;;
2024/01/14 17:16:10;;;;;;;65;39;;;;;;;;;;;;;
2024/01/14 17:18:35;;;;;;;65;39.9;;;;;;;;;;;;;
2024/01/14 17:21:03;;;;;;;76.8;45.4;;;;;;;;;;;;;
2024/01/14 17:23:28;;;;;;;75;43.7;;;;;;;;;;;;;
2024/01/14 17:25:54;;;;;;;64.1;39;;;;;;;;;;;;;
2024/01/14 17:28:18;;;;;;;56.8;34.8;;;;;;;;;;;;;
2024/01/14 17:30:43;;;;;;;60.8;37.9;;;;;;;;;;;;;
2024/01/14 17:33:11;;;;;;;58.2;32.8;;;;;;;;;;;;;
2024/01/14 17:35:41;;;;;;;54.3;31.8;;;;;;;;;;;;;
2024/01/14 17:38:06;;;;;;;48.2;30.3;;;;;;;;;;;;;
2024/01/14 17:40:31;;;;;;;59.4;34.6;;;;;;;;;;;;;
2024/01/14 17:42:57;;;;;;;52.2;32.3;;;;;;;;;;;;;
2024/01/14 17:45:24;;;;;;;46.8;27.9;;;;;;;;;;;;;
2024/01/14 17:47:49;;;;;;;42.2;27.8;;;;;;;;;;;;;
2024/01/14 17:50:17;;;;;;;47.4;29.6;;;;;;;;;;;;;
2024/01/14 17:52:42;;;;;;;45.9;28.8;;;;;;;;;;;;;
2024/01/14 17:55:09;;;;;;;47.6;26.6;;;;;;;;;;;;;
2024/01/14 17:57:34;;;;;;;84.7;46.1;;;;;;;;;;;;;
2024/01/14 17:59:59;;;;;;;61.6;33;;;;;;;;;;;;;
2024/01/14 18:02:25;;;;;;;292.5;105.6;;;;;;;;;;;;;
2024/01/14 18:04:51;;;;;;;96;43.3;;;;;;;;;;;;;
2024/01/14 18:07:17;;;;;;;105.6;46.5;;;;;;;;;;;;;
2024/01/14 18:09:42;;;;;;;113.1;50.7;;;;;;;;;;;;;
2024/01/14 18:12:07;;;;;;;105.9;51.5;;;;;;;;;;;;;
2024/01/14 18:14:35;;;;;;;72.3;38.7;;;;;;;;;;;;;
2024/01/14 18:17:00;;;;;;;64.7;36.3;;;;;;;;;;;;;
2024/01/14 18:19:25;;;;;;;73.2;38.9;;;;;;;;;;;;;
2024/01/14 18:21:50;;;;;;;72.1;38.6;;;;;;;;;;;;;
2024/01/14 18:24:17;;;;;;;48.4;26.7;;;;;;;;;;;;;
2024/01/14 18:26:42;;;;;;;55.8;32.6;;;;;;;;;;;;;
2024/01/14 18:29:08;;;;;;;69.5;39.4;;;;;;;;;;;;;